sensor_id;sensor_type;location;lat;lon;timestamp;P1;durP1;ratioP1;P2;durP2;ratioP2
42336;SDS011;27987;51.468;5.464;2022-07-30T00:00:25;21.50;;;5.88;;
42336;SDS011;27987;51.468;5.464;2022-07-30T00:02:52;13.93;;;5.40;;
42336;SDS011;27987;51.468;5.464;2022-07-30T00:05:19;13.60;;;6.68;;
42336;SDS011;27987;51.468;5.464;2022-07-30T00:07:47;17.08;;;6.00;;
42336;SDS011;27987;51.468;5.464;2022-07-30T00:10:17;16.85;;;6.30;;
42336;SDS011;27987;51.468;5.464;2022-07-30T00:12:47;14.88;;;5.38;;
42336;SDS011;27987;51.468;5.464;2022-07-30T00:15:14;17.30;;;6.45;;
42336;SDS011;27987;51.468;5.464;2022-07-30T00:17:40;13.65;;;5.07;;
42336;SDS011;27987;51.468;5.464;2022-07-30T00:20:08;18.42;;;7.15;;
42336;SDS011;27987;51.468;5.464;2022-07-30T00:22:36;13.32;;;5.70;;
42336;SDS011;27987;51.468;5.464;2022-07-30T00:25:04;19.60;;;6.47;;
42336;SDS011;27987;51.468;5.464;2022-07-30T00:27:32;12.55;;;6.40;;
42336;SDS011;27987;51.468;5.464;2022-07-30T00:30:03;16.42;;;6.18;;
42336;SDS011;27987;51.468;5.464;2022-07-30T00:32:31;14.00;;;5.97;;
42336;SDS011;27987;51.468;5.464;2022-07-30T00:34:58;18.48;;;7.05;;
42336;SDS011;27987;51.468;5.464;2022-07-30T00:37:24;17.08;;;7.00;;
42336;SDS011;27987;51.468;5.464;2022-07-30T00:39:54;14.93;;;7.25;;
42336;SDS011;27987;51.468;5.464;2022-07-30T00:42:22;19.13;;;7.15;;
42336;SDS011;27987;51.468;5.464;2022-07-30T00:44:50;14.82;;;7.05;;
42336;SDS011;27987;51.468;5.464;2022-07-30T00:47:17;20.65;;;8.55;;
42336;SDS011;27987;51.468;5.464;2022-07-30T00:49:44;12.57;;;7.70;;
42336;SDS011;27987;51.468;5.464;2022-07-30T00:52:14;16.88;;;8.07;;
42336;SDS011;27987;51.468;5.464;2022-07-30T00:54:42;28.63;;;8.47;;
42336;SDS011;27987;51.468;5.464;2022-07-30T00:57:08;15.45;;;8.05;;
42336;SDS011;27987;51.468;5.464;2022-07-30T00:59:43;17.10;;;8.50;;
42336;SDS011;27987;51.468;5.464;2022-07-30T01:02:10;18.58;;;8.88;;
42336;SDS011;27987;51.468;5.464;2022-07-30T01:04:37;17.45;;;8.25;;
42336;SDS011;27987;51.468;5.464;2022-07-30T01:07:04;19.20;;;9.02;;
42336;SDS011;27987;51.468;5.464;2022-07-30T01:09:31;19.25;;;9.45;;
42336;SDS011;27987;51.468;5.464;2022-07-30T01:12:02;32.67;;;10.65;;
42336;SDS011;27987;51.468;5.464;2022-07-30T01:14:30;22.10;;;10.68;;
42336;SDS011;27987;51.468;5.464;2022-07-30T01:17:03;24.20;;;10.95;;
42336;SDS011;27987;51.468;5.464;2022-07-30T01:19:33;16.98;;;10.18;;
42336;SDS011;27987;51.468;5.464;2022-07-30T01:22:17;19.15;;;10.57;;
42336;SDS011;27987;51.468;5.464;2022-07-30T01:25:00;27.52;;;11.27;;
42336;SDS011;27987;51.468;5.464;2022-07-30T01:27:37;22.48;;;11.40;;
42336;SDS011;27987;51.468;5.464;2022-07-30T01:30:08;25.02;;;12.15;;
42336;SDS011;27987;51.468;5.464;2022-07-30T01:32:38;26.85;;;11.68;;
42336;SDS011;27987;51.468;5.464;2022-07-30T01:35:09;25.88;;;12.85;;
42336;SDS011;27987;51.468;5.464;2022-07-30T01:37:37;21.65;;;12.15;;
42336;SDS011;27987;51.468;5.464;2022-07-30T01:40:05;21.95;;;13.00;;
42336;SDS011;27987;51.468;5.464;2022-07-30T01:42:33;24.63;;;12.75;;
42336;SDS011;27987;51.468;5.464;2022-07-30T01:45:05;25.08;;;13.35;;
42336;SDS011;27987;51.468;5.464;2022-07-30T01:47:34;23.45;;;12.88;;
42336;SDS011;27987;51.468;5.464;2022-07-30T01:50:04;23.45;;;13.68;;
42336;SDS011;27987;51.468;5.464;2022-07-30T01:52:37;23.25;;;14.63;;
42336;SDS011;27987;51.468;5.464;2022-07-30T01:55:09;29.98;;;14.93;;
42336;SDS011;27987;51.468;5.464;2022-07-30T01:57:43;29.75;;;14.85;;
42336;SDS011;27987;51.468;5.464;2022-07-30T02:00:13;28.90;;;14.70;;
42336;SDS011;27987;51.468;5.464;2022-07-30T02:02:41;30.25;;;14.45;;
42336;SDS011;27987;51.468;5.464;2022-07-30T02:05:09;26.83;;;15.02;;
42336;SDS011;27987;51.468;5.464;2022-07-30T02:07:37;28.13;;;15.52;;
42336;SDS011;27987;51.468;5.464;2022-07-30T02:10:12;24.90;;;14.80;;
42336;SDS011;27987;51.468;5.464;2022-07-30T02:12:47;33.08;;;16.08;;
42336;SDS011;27987;51.468;5.464;2022-07-30T02:15:21;25.65;;;16.48;;
42336;SDS011;27987;51.468;5.464;2022-07-30T02:17:59;29.77;;;16.90;;
42336;SDS011;27987;51.468;5.464;2022-07-30T02:20:32;26.13;;;16.67;;
42336;SDS011;27987;51.468;5.464;2022-07-30T02:23:00;27.38;;;17.30;;
42336;SDS011;27987;51.468;5.464;2022-07-30T02:25:32;27.10;;;17.83;;
42336;SDS011;27987;51.468;5.464;2022-07-30T02:28:03;34.80;;;19.38;;
42336;SDS011;27987;51.468;5.464;2022-07-30T02:30:35;34.05;;;18.15;;
42336;SDS011;27987;51.468;5.464;2022-07-30T02:33:16;25.95;;;18.48;;
42336;SDS011;27987;51.468;5.464;2022-07-30T02:35:46;30.42;;;18.70;;
42336;SDS011;27987;51.468;5.464;2022-07-30T02:38:16;32.03;;;18.25;;
42336;SDS011;27987;51.468;5.464;2022-07-30T02:40:45;29.83;;;18.48;;
42336;SDS011;27987;51.468;5.464;2022-07-30T02:43:14;27.65;;;19.52;;
42336;SDS011;27987;51.468;5.464;2022-07-30T02:45:45;29.65;;;20.67;;
42336;SDS011;27987;51.468;5.464;2022-07-30T02:48:13;27.90;;;20.73;;
42336;SDS011;27987;51.468;5.464;2022-07-30T02:50:41;31.45;;;20.80;;
42336;SDS011;27987;51.468;5.464;2022-07-30T02:53:10;32.90;;;19.90;;
42336;SDS011;27987;51.468;5.464;2022-07-30T02:55:39;33.33;;;20.55;;
42336;SDS011;27987;51.468;5.464;2022-07-30T02:58:11;29.77;;;21.15;;
42336;SDS011;27987;51.468;5.464;2022-07-30T03:00:45;33.70;;;21.05;;
42336;SDS011;27987;51.468;5.464;2022-07-30T03:03:13;26.52;;;20.52;;
42336;SDS011;27987;51.468;5.464;2022-07-30T03:05:42;31.83;;;20.38;;
42336;SDS011;27987;51.468;5.464;2022-07-30T03:08:11;36.40;;;21.50;;
42336;SDS011;27987;51.468;5.464;2022-07-30T03:10:40;38.20;;;21.38;;
42336;SDS011;27987;51.468;5.464;2022-07-30T03:13:10;32.63;;;21.50;;
42336;SDS011;27987;51.468;5.464;2022-07-30T03:15:41;35.58;;;21.15;;
42336;SDS011;27987;51.468;5.464;2022-07-30T03:18:13;34.30;;;22.75;;
42336;SDS011;27987;51.468;5.464;2022-07-30T03:20:42;31.35;;;21.15;;
42336;SDS011;27987;51.468;5.464;2022-07-30T03:23:12;34.00;;;22.10;;
42336;SDS011;27987;51.468;5.464;2022-07-30T03:25:42;30.80;;;20.50;;
42336;SDS011;27987;51.468;5.464;2022-07-30T03:28:15;32.60;;;22.40;;
42336;SDS011;27987;51.468;5.464;2022-07-30T03:30:45;31.90;;;21.45;;
42336;SDS011;27987;51.468;5.464;2022-07-30T03:33:13;33.30;;;22.13;;
42336;SDS011;27987;51.468;5.464;2022-07-30T03:35:40;34.55;;;22.30;;
42336;SDS011;27987;51.468;5.464;2022-07-30T03:38:11;30.65;;;22.23;;
42336;SDS011;27987;51.468;5.464;2022-07-30T03:40:39;40.47;;;22.02;;
42336;SDS011;27987;51.468;5.464;2022-07-30T03:43:07;37.75;;;22.80;;
42336;SDS011;27987;51.468;5.464;2022-07-30T03:45:36;30.58;;;21.35;;
42336;SDS011;27987;51.468;5.464;2022-07-30T03:48:07;30.73;;;22.35;;
42336;SDS011;27987;51.468;5.464;2022-07-30T03:50:36;32.25;;;20.77;;
42336;SDS011;27987;51.468;5.464;2022-07-30T03:53:05;29.25;;;20.63;;
42336;SDS011;27987;51.468;5.464;2022-07-30T03:55:33;34.58;;;20.98;;
42336;SDS011;27987;51.468;5.464;2022-07-30T03:58:01;34.28;;;21.80;;
42336;SDS011;27987;51.468;5.464;2022-07-30T04:00:28;34.17;;;21.95;;
42336;SDS011;27987;51.468;5.464;2022-07-30T04:02:58;29.05;;;22.02;;
42336;SDS011;27987;51.468;5.464;2022-07-30T04:05:26;39.53;;;22.08;;
42336;SDS011;27987;51.468;5.464;2022-07-30T04:07:53;35.45;;;21.63;;
42336;SDS011;27987;51.468;5.464;2022-07-30T04:10:20;34.90;;;22.35;;
42336;SDS011;27987;51.468;5.464;2022-07-30T04:12:53;29.27;;;21.50;;
42336;SDS011;27987;51.468;5.464;2022-07-30T04:15:20;31.48;;;21.45;;
42336;SDS011;27987;51.468;5.464;2022-07-30T04:17:48;32.83;;;21.75;;
42336;SDS011;27987;51.468;5.464;2022-07-30T04:20:21;31.80;;;22.55;;
42336;SDS011;27987;51.468;5.464;2022-07-30T04:22:53;33.70;;;21.73;;
42336;SDS011;27987;51.468;5.464;2022-07-30T04:25:23;32.38;;;21.45;;
42336;SDS011;27987;51.468;5.464;2022-07-30T04:27:51;34.90;;;20.58;;
42336;SDS011;27987;51.468;5.464;2022-07-30T04:30:19;33.20;;;23.00;;
42336;SDS011;27987;51.468;5.464;2022-07-30T04:32:46;32.55;;;20.63;;
42336;SDS011;27987;51.468;5.464;2022-07-30T04:35:13;30.13;;;20.92;;
42336;SDS011;27987;51.468;5.464;2022-07-30T04:37:40;32.05;;;20.58;;
42336;SDS011;27987;51.468;5.464;2022-07-30T04:40:08;34.83;;;21.25;;
42336;SDS011;27987;51.468;5.464;2022-07-30T04:42:35;30.92;;;20.13;;
42336;SDS011;27987;51.468;5.464;2022-07-30T04:45:03;32.30;;;19.70;;
42336;SDS011;27987;51.468;5.464;2022-07-30T04:47:31;27.73;;;19.23;;
42336;SDS011;27987;51.468;5.464;2022-07-30T04:49:58;29.25;;;19.00;;
42336;SDS011;27987;51.468;5.464;2022-07-30T04:52:25;30.33;;;18.95;;
42336;SDS011;27987;51.468;5.464;2022-07-30T04:54:54;27.50;;;19.80;;
42336;SDS011;27987;51.468;5.464;2022-07-30T04:57:26;26.88;;;18.42;;
42336;SDS011;27987;51.468;5.464;2022-07-30T04:59:53;31.58;;;18.50;;
42336;SDS011;27987;51.468;5.464;2022-07-30T05:02:21;28.33;;;17.77;;
42336;SDS011;27987;51.468;5.464;2022-07-30T05:04:51;26.17;;;17.20;;
42336;SDS011;27987;51.468;5.464;2022-07-30T05:07:19;23.48;;;17.23;;
42336;SDS011;27987;51.468;5.464;2022-07-30T05:09:46;25.85;;;18.60;;
42336;SDS011;27987;51.468;5.464;2022-07-30T05:12:17;24.83;;;16.95;;
42336;SDS011;27987;51.468;5.464;2022-07-30T05:14:47;26.73;;;16.85;;
42336;SDS011;27987;51.468;5.464;2022-07-30T05:17:14;25.20;;;17.60;;
42336;SDS011;27987;51.468;5.464;2022-07-30T05:19:41;23.00;;;16.10;;
42336;SDS011;27987;51.468;5.464;2022-07-30T05:22:08;27.17;;;16.33;;
42336;SDS011;27987;51.468;5.464;2022-07-30T05:24:35;28.52;;;15.70;;
42336;SDS011;27987;51.468;5.464;2022-07-30T05:27:02;23.58;;;15.45;;
42336;SDS011;27987;51.468;5.464;2022-07-30T05:29:29;30.63;;;15.88;;
42336;SDS011;27987;51.468;5.464;2022-07-30T05:31:58;20.65;;;15.23;;
42336;SDS011;27987;51.468;5.464;2022-07-30T05:34:25;23.27;;;15.35;;
42336;SDS011;27987;51.468;5.464;2022-07-30T05:36:51;26.98;;;14.57;;
42336;SDS011;27987;51.468;5.464;2022-07-30T05:39:18;21.70;;;13.40;;
42336;SDS011;27987;51.468;5.464;2022-07-30T05:41:45;22.42;;;13.75;;
42336;SDS011;27987;51.468;5.464;2022-07-30T05:44:12;21.77;;;13.82;;
42336;SDS011;27987;51.468;5.464;2022-07-30T05:46:42;27.65;;;13.30;;
42336;SDS011;27987;51.468;5.464;2022-07-30T05:49:10;22.15;;;13.63;;
42336;SDS011;27987;51.468;5.464;2022-07-30T05:51:37;25.55;;;12.75;;
42336;SDS011;27987;51.468;5.464;2022-07-30T05:54:09;20.90;;;12.73;;
42336;SDS011;27987;51.468;5.464;2022-07-30T05:56:36;23.48;;;12.80;;
42336;SDS011;27987;51.468;5.464;2022-07-30T05:59:04;26.77;;;12.85;;
42336;SDS011;27987;51.468;5.464;2022-07-30T06:01:31;25.25;;;12.65;;
42336;SDS011;27987;51.468;5.464;2022-07-30T06:04:04;21.00;;;11.30;;
42336;SDS011;27987;51.468;5.464;2022-07-30T06:06:38;26.60;;;12.02;;
42336;SDS011;27987;51.468;5.464;2022-07-30T06:09:05;19.23;;;11.40;;
42336;SDS011;27987;51.468;5.464;2022-07-30T06:11:32;22.83;;;11.88;;
42336;SDS011;27987;51.468;5.464;2022-07-30T06:14:04;16.15;;;10.93;;
42336;SDS011;27987;51.468;5.464;2022-07-30T06:16:31;22.20;;;10.63;;
42336;SDS011;27987;51.468;5.464;2022-07-30T06:18:58;24.48;;;11.13;;
42336;SDS011;27987;51.468;5.464;2022-07-30T06:21:25;25.15;;;11.40;;
42336;SDS011;27987;51.468;5.464;2022-07-30T06:23:53;16.45;;;9.65;;
42336;SDS011;27987;51.468;5.464;2022-07-30T06:26:20;18.52;;;9.93;;
42336;SDS011;27987;51.468;5.464;2022-07-30T06:28:47;20.20;;;9.60;;
42336;SDS011;27987;51.468;5.464;2022-07-30T06:31:14;16.13;;;9.07;;
42336;SDS011;27987;51.468;5.464;2022-07-30T06:33:41;17.90;;;8.77;;
42336;SDS011;27987;51.468;5.464;2022-07-30T06:36:08;18.07;;;10.20;;
42336;SDS011;27987;51.468;5.464;2022-07-30T06:38:35;18.67;;;7.25;;
42336;SDS011;27987;51.468;5.464;2022-07-30T06:41:04;14.35;;;6.63;;
42336;SDS011;27987;51.468;5.464;2022-07-30T06:43:30;10.63;;;5.05;;
42336;SDS011;27987;51.468;5.464;2022-07-30T06:45:58;11.55;;;5.13;;
42336;SDS011;27987;51.468;5.464;2022-07-30T06:48:25;17.50;;;5.68;;
42336;SDS011;27987;51.468;5.464;2022-07-30T06:50:52;8.00;;;4.03;;
42336;SDS011;27987;51.468;5.464;2022-07-30T06:53:19;14.18;;;4.97;;
42336;SDS011;27987;51.468;5.464;2022-07-30T06:55:46;11.57;;;4.60;;
42336;SDS011;27987;51.468;5.464;2022-07-30T06:58:15;10.82;;;4.70;;
42336;SDS011;27987;51.468;5.464;2022-07-30T07:00:42;10.30;;;4.30;;
42336;SDS011;27987;51.468;5.464;2022-07-30T07:03:09;9.93;;;4.38;;
42336;SDS011;27987;51.468;5.464;2022-07-30T07:05:36;12.05;;;3.72;;
42336;SDS011;27987;51.468;5.464;2022-07-30T07:08:04;9.23;;;3.03;;
42336;SDS011;27987;51.468;5.464;2022-07-30T07:10:33;12.57;;;3.50;;
42336;SDS011;27987;51.468;5.464;2022-07-30T07:13:00;10.25;;;3.47;;
42336;SDS011;27987;51.468;5.464;2022-07-30T07:15:28;10.60;;;3.78;;
42336;SDS011;27987;51.468;5.464;2022-07-30T07:17:58;9.45;;;3.28;;
42336;SDS011;27987;51.468;5.464;2022-07-30T07:20:25;7.70;;;2.72;;
42336;SDS011;27987;51.468;5.464;2022-07-30T07:22:52;9.52;;;3.13;;
42336;SDS011;27987;51.468;5.464;2022-07-30T07:25:18;12.18;;;3.38;;
42336;SDS011;27987;51.468;5.464;2022-07-30T07:27:45;13.15;;;3.60;;
42336;SDS011;27987;51.468;5.464;2022-07-30T07:30:12;10.75;;;3.03;;
42336;SDS011;27987;51.468;5.464;2022-07-30T07:32:41;9.93;;;3.47;;
42336;SDS011;27987;51.468;5.464;2022-07-30T07:35:08;9.70;;;3.63;;
42336;SDS011;27987;51.468;5.464;2022-07-30T07:37:40;7.32;;;3.20;;
42336;SDS011;27987;51.468;5.464;2022-07-30T07:40:10;9.75;;;3.40;;
42336;SDS011;27987;51.468;5.464;2022-07-30T07:42:38;9.82;;;3.53;;
42336;SDS011;27987;51.468;5.464;2022-07-30T07:45:05;12.32;;;3.65;;
42336;SDS011;27987;51.468;5.464;2022-07-30T07:47:42;9.40;;;3.45;;
42336;SDS011;27987;51.468;5.464;2022-07-30T07:50:10;8.02;;;2.88;;
42336;SDS011;27987;51.468;5.464;2022-07-30T07:52:39;12.27;;;3.65;;
42336;SDS011;27987;51.468;5.464;2022-07-30T07:55:07;7.93;;;3.58;;
42336;SDS011;27987;51.468;5.464;2022-07-30T07:57:37;11.23;;;3.35;;
42336;SDS011;27987;51.468;5.464;2022-07-30T08:00:05;9.18;;;2.80;;
42336;SDS011;27987;51.468;5.464;2022-07-30T08:02:34;10.18;;;3.30;;
42336;SDS011;27987;51.468;5.464;2022-07-30T08:05:03;6.85;;;2.80;;
42336;SDS011;27987;51.468;5.464;2022-07-30T08:07:32;5.95;;;2.22;;
42336;SDS011;27987;51.468;5.464;2022-07-30T08:09:59;5.97;;;2.10;;
42336;SDS011;27987;51.468;5.464;2022-07-30T08:12:26;8.43;;;2.00;;
42336;SDS011;27987;51.468;5.464;2022-07-30T08:14:53;7.22;;;2.38;;
42336;SDS011;27987;51.468;5.464;2022-07-30T08:17:20;11.38;;;2.45;;
42336;SDS011;27987;51.468;5.464;2022-07-30T08:19:47;5.95;;;2.33;;
42336;SDS011;27987;51.468;5.464;2022-07-30T08:22:16;7.50;;;2.40;;
42336;SDS011;27987;51.468;5.464;2022-07-30T08:24:42;10.38;;;2.35;;
42336;SDS011;27987;51.468;5.464;2022-07-30T08:27:09;5.22;;;2.08;;
42336;SDS011;27987;51.468;5.464;2022-07-30T08:29:36;7.40;;;2.25;;
42336;SDS011;27987;51.468;5.464;2022-07-30T08:32:03;6.93;;;2.10;;
42336;SDS011;27987;51.468;5.464;2022-07-30T08:34:31;12.70;;;2.65;;
42336;SDS011;27987;51.468;5.464;2022-07-30T08:36:58;8.18;;;2.45;;
42336;SDS011;27987;51.468;5.464;2022-07-30T08:39:26;5.72;;;2.17;;
42336;SDS011;27987;51.468;5.464;2022-07-30T08:41:53;5.40;;;1.80;;
42336;SDS011;27987;51.468;5.464;2022-07-30T08:44:21;7.88;;;2.15;;
42336;SDS011;27987;51.468;5.464;2022-07-30T08:46:49;7.97;;;2.10;;
42336;SDS011;27987;51.468;5.464;2022-07-30T08:49:20;11.05;;;2.30;;
42336;SDS011;27987;51.468;5.464;2022-07-30T08:51:48;6.07;;;2.15;;
42336;SDS011;27987;51.468;5.464;2022-07-30T08:54:16;7.88;;;2.20;;
42336;SDS011;27987;51.468;5.464;2022-07-30T08:56:48;7.55;;;2.50;;
42336;SDS011;27987;51.468;5.464;2022-07-30T08:59:15;11.18;;;1.92;;
42336;SDS011;27987;51.468;5.464;2022-07-30T09:01:43;6.30;;;2.35;;
42336;SDS011;27987;51.468;5.464;2022-07-30T09:04:09;6.70;;;2.00;;
42336;SDS011;27987;51.468;5.464;2022-07-30T09:06:39;8.32;;;2.13;;
42336;SDS011;27987;51.468;5.464;2022-07-30T09:09:06;7.38;;;2.22;;
42336;SDS011;27987;51.468;5.464;2022-07-30T09:11:33;5.43;;;1.60;;
42336;SDS011;27987;51.468;5.464;2022-07-30T09:14:07;3.80;;;1.73;;
42336;SDS011;27987;51.468;5.464;2022-07-30T09:16:36;5.88;;;1.70;;
42336;SDS011;27987;51.468;5.464;2022-07-30T09:19:13;9.10;;;2.05;;
42336;SDS011;27987;51.468;5.464;2022-07-30T09:21:42;3.42;;;1.55;;
42336;SDS011;27987;51.468;5.464;2022-07-30T09:24:21;30.20;;;2.40;;
42336;SDS011;27987;51.468;5.464;2022-07-30T09:26:52;5.80;;;2.00;;
42336;SDS011;27987;51.468;5.464;2022-07-30T09:29:24;6.13;;;1.98;;
42336;SDS011;27987;51.468;5.464;2022-07-30T09:31:55;5.32;;;2.20;;
42336;SDS011;27987;51.468;5.464;2022-07-30T09:34:26;6.65;;;1.95;;
42336;SDS011;27987;51.468;5.464;2022-07-30T09:36:56;4.47;;;1.60;;
42336;SDS011;27987;51.468;5.464;2022-07-30T09:39:30;4.80;;;1.95;;
42336;SDS011;27987;51.468;5.464;2022-07-30T09:41:59;8.70;;;2.17;;
42336;SDS011;27987;51.468;5.464;2022-07-30T09:44:28;6.43;;;2.42;;
42336;SDS011;27987;51.468;5.464;2022-07-30T09:46:56;4.55;;;1.63;;
42336;SDS011;27987;51.468;5.464;2022-07-30T09:49:26;7.35;;;1.95;;
42336;SDS011;27987;51.468;5.464;2022-07-30T09:51:56;6.38;;;1.73;;
42336;SDS011;27987;51.468;5.464;2022-07-30T09:54:25;6.75;;;1.83;;
42336;SDS011;27987;51.468;5.464;2022-07-30T09:57:12;5.57;;;1.67;;
42336;SDS011;27987;51.468;5.464;2022-07-30T09:59:40;6.38;;;1.95;;
42336;SDS011;27987;51.468;5.464;2022-07-30T10:02:08;7.82;;;2.38;;
42336;SDS011;27987;51.468;5.464;2022-07-30T10:04:36;9.02;;;2.00;;
42336;SDS011;27987;51.468;5.464;2022-07-30T10:07:03;6.80;;;2.00;;
42336;SDS011;27987;51.468;5.464;2022-07-30T10:09:30;4.28;;;1.90;;
42336;SDS011;27987;51.468;5.464;2022-07-30T10:12:00;4.28;;;1.67;;
42336;SDS011;27987;51.468;5.464;2022-07-30T10:14:31;3.92;;;1.40;;
42336;SDS011;27987;51.468;5.464;2022-07-30T10:17:02;5.45;;;1.67;;
42336;SDS011;27987;51.468;5.464;2022-07-30T10:19:34;6.18;;;1.60;;
42336;SDS011;27987;51.468;5.464;2022-07-30T10:22:04;5.32;;;1.88;;
42336;SDS011;27987;51.468;5.464;2022-07-30T10:24:32;5.55;;;1.30;;
42336;SDS011;27987;51.468;5.464;2022-07-30T10:27:01;3.92;;;1.60;;
42336;SDS011;27987;51.468;5.464;2022-07-30T10:31:59;3.75;;;1.30;;
42336;SDS011;27987;51.468;5.464;2022-07-30T10:34:28;3.38;;;1.38;;
42336;SDS011;27987;51.468;5.464;2022-07-30T10:36:59;6.95;;;1.52;;
42336;SDS011;27987;51.468;5.464;2022-07-30T10:39:30;5.55;;;1.50;;
42336;SDS011;27987;51.468;5.464;2022-07-30T10:42:21;4.23;;;1.73;;
42336;SDS011;27987;51.468;5.464;2022-07-30T10:45:11;5.43;;;1.40;;
42336;SDS011;27987;51.468;5.464;2022-07-30T10:47:53;3.80;;;1.20;;
42336;SDS011;27987;51.468;5.464;2022-07-30T10:50:23;7.57;;;1.60;;
42336;SDS011;27987;51.468;5.464;2022-07-30T10:52:52;4.43;;;1.50;;
42336;SDS011;27987;51.468;5.464;2022-07-30T10:55:26;5.65;;;1.48;;
42336;SDS011;27987;51.468;5.464;2022-07-30T10:57:55;3.72;;;1.50;;
42336;SDS011;27987;51.468;5.464;2022-07-30T11:00:35;5.28;;;1.40;;
42336;SDS011;27987;51.468;5.464;2022-07-30T11:03:33;4.80;;;1.75;;
42336;SDS011;27987;51.468;5.464;2022-07-30T11:12:03;5.78;;;1.48;;
42336;SDS011;27987;51.468;5.464;2022-07-30T11:17:24;5.13;;;1.65;;
42336;SDS011;27987;51.468;5.464;2022-07-30T11:22:45;5.65;;;1.35;;
42336;SDS011;27987;51.468;5.464;2022-07-30T11:28:04;5.25;;;1.27;;
42336;SDS011;27987;51.468;5.464;2022-07-30T11:30:33;4.78;;;1.35;;
42336;SDS011;27987;51.468;5.464;2022-07-30T11:36:05;4.70;;;1.52;;
42336;SDS011;27987;51.468;5.464;2022-07-30T11:38:51;4.70;;;1.30;;
42336;SDS011;27987;51.468;5.464;2022-07-30T11:41:20;7.22;;;2.08;;
42336;SDS011;27987;51.468;5.464;2022-07-30T11:43:48;5.20;;;1.52;;
42336;SDS011;27987;51.468;5.464;2022-07-30T11:46:51;5.55;;;1.55;;
42336;SDS011;27987;51.468;5.464;2022-07-30T11:49:20;5.78;;;1.70;;
42336;SDS011;27987;51.468;5.464;2022-07-30T11:51:47;7.15;;;1.70;;
42336;SDS011;27987;51.468;5.464;2022-07-30T11:54:17;6.85;;;1.80;;
42336;SDS011;27987;51.468;5.464;2022-07-30T11:56:48;2.85;;;1.27;;
42336;SDS011;27987;51.468;5.464;2022-07-30T11:59:17;4.88;;;1.42;;
42336;SDS011;27987;51.468;5.464;2022-07-30T12:01:50;5.10;;;1.58;;
42336;SDS011;27987;51.468;5.464;2022-07-30T12:04:22;4.78;;;1.38;;
42336;SDS011;27987;51.468;5.464;2022-07-30T12:06:49;10.25;;;1.48;;
42336;SDS011;27987;51.468;5.464;2022-07-30T12:09:23;7.60;;;1.50;;
42336;SDS011;27987;51.468;5.464;2022-07-30T12:11:52;5.72;;;1.67;;
42336;SDS011;27987;51.468;5.464;2022-07-30T12:14:23;7.10;;;1.80;;
42336;SDS011;27987;51.468;5.464;2022-07-30T12:16:51;5.00;;;1.90;;
42336;SDS011;27987;51.468;5.464;2022-07-30T12:19:19;6.47;;;1.92;;
42336;SDS011;27987;51.468;5.464;2022-07-30T12:21:49;6.35;;;1.80;;
42336;SDS011;27987;51.468;5.464;2022-07-30T12:24:16;6.40;;;1.65;;
42336;SDS011;27987;51.468;5.464;2022-07-30T12:26:50;12.70;;;2.10;;
42336;SDS011;27987;51.468;5.464;2022-07-30T12:29:28;7.95;;;1.70;;
42336;SDS011;27987;51.468;5.464;2022-07-30T12:31:59;7.97;;;2.17;;
42336;SDS011;27987;51.468;5.464;2022-07-30T12:34:26;4.88;;;1.73;;
42336;SDS011;27987;51.468;5.464;2022-07-30T12:36:55;6.18;;;1.65;;
42336;SDS011;27987;51.468;5.464;2022-07-30T12:39:33;7.85;;;1.80;;
42336;SDS011;27987;51.468;5.464;2022-07-30T12:42:00;5.68;;;1.90;;
42336;SDS011;27987;51.468;5.464;2022-07-30T12:44:35;3.75;;;1.55;;
42336;SDS011;27987;51.468;5.464;2022-07-30T12:47:05;4.65;;;1.77;;
42336;SDS011;27987;51.468;5.464;2022-07-30T12:49:49;4.57;;;1.50;;
42336;SDS011;27987;51.468;5.464;2022-07-30T12:52:21;5.65;;;1.58;;
42336;SDS011;27987;51.468;5.464;2022-07-30T12:54:57;5.97;;;1.70;;
42336;SDS011;27987;51.468;5.464;2022-07-30T12:57:26;4.95;;;1.50;;
42336;SDS011;27987;51.468;5.464;2022-07-30T12:59:59;5.57;;;1.33;;
42336;SDS011;27987;51.468;5.464;2022-07-30T13:02:30;4.80;;;1.65;;
42336;SDS011;27987;51.468;5.464;2022-07-30T13:04:58;7.28;;;2.00;;
42336;SDS011;27987;51.468;5.464;2022-07-30T13:07:26;5.50;;;1.90;;
42336;SDS011;27987;51.468;5.464;2022-07-30T13:10:06;5.68;;;2.17;;
42336;SDS011;27987;51.468;5.464;2022-07-30T13:12:35;11.18;;;2.13;;
42336;SDS011;27987;51.468;5.464;2022-07-30T13:15:02;6.07;;;2.10;;
42336;SDS011;27987;51.468;5.464;2022-07-30T13:17:30;8.07;;;1.77;;
42336;SDS011;27987;51.468;5.464;2022-07-30T13:19:57;7.45;;;1.95;;
42336;SDS011;27987;51.468;5.464;2022-07-30T13:22:24;3.55;;;1.80;;
42336;SDS011;27987;51.468;5.464;2022-07-30T13:24:55;6.25;;;1.95;;
42336;SDS011;27987;51.468;5.464;2022-07-30T13:27:22;5.75;;;2.00;;
42336;SDS011;27987;51.468;5.464;2022-07-30T13:29:49;8.43;;;2.10;;
42336;SDS011;27987;51.468;5.464;2022-07-30T13:32:16;5.60;;;1.60;;
42336;SDS011;27987;51.468;5.464;2022-07-30T13:34:43;7.20;;;1.42;;
42336;SDS011;27987;51.468;5.464;2022-07-30T13:37:10;13.20;;;1.85;;
42336;SDS011;27987;51.468;5.464;2022-07-30T13:39:39;5.50;;;1.83;;
42336;SDS011;27987;51.468;5.464;2022-07-30T13:42:05;7.10;;;1.98;;
42336;SDS011;27987;51.468;5.464;2022-07-30T13:44:32;9.55;;;2.47;;
42336;SDS011;27987;51.468;5.464;2022-07-30T13:46:59;6.60;;;1.92;;
42336;SDS011;27987;51.468;5.464;2022-07-30T13:49:26;5.00;;;1.60;;
42336;SDS011;27987;51.468;5.464;2022-07-30T13:51:53;5.70;;;2.00;;
42336;SDS011;27987;51.468;5.464;2022-07-30T13:54:28;7.28;;;1.80;;
42336;SDS011;27987;51.468;5.464;2022-07-30T13:57:02;4.20;;;1.80;;
42336;SDS011;27987;51.468;5.464;2022-07-30T13:59:30;10.83;;;2.27;;
42336;SDS011;27987;51.468;5.464;2022-07-30T14:01:57;8.70;;;2.30;;
42336;SDS011;27987;51.468;5.464;2022-07-30T14:04:28;6.07;;;1.92;;
42336;SDS011;27987;51.468;5.464;2022-07-30T14:06:55;6.68;;;2.15;;
42336;SDS011;27987;51.468;5.464;2022-07-30T14:09:23;10.43;;;1.90;;
42336;SDS011;27987;51.468;5.464;2022-07-30T14:11:51;6.13;;;2.00;;
42336;SDS011;27987;51.468;5.464;2022-07-30T14:14:19;6.05;;;2.25;;
42336;SDS011;27987;51.468;5.464;2022-07-30T14:16:47;7.80;;;1.95;;
42336;SDS011;27987;51.468;5.464;2022-07-30T14:19:16;8.70;;;1.88;;
42336;SDS011;27987;51.468;5.464;2022-07-30T14:21:44;8.70;;;2.20;;
42336;SDS011;27987;51.468;5.464;2022-07-30T14:24:11;4.93;;;1.67;;
42336;SDS011;27987;51.468;5.464;2022-07-30T14:26:41;4.88;;;1.63;;
42336;SDS011;27987;51.468;5.464;2022-07-30T14:29:09;8.40;;;2.30;;
42336;SDS011;27987;51.468;5.464;2022-07-30T14:31:37;6.10;;;2.10;;
42336;SDS011;27987;51.468;5.464;2022-07-30T14:34:04;5.70;;;1.73;;
42336;SDS011;27987;51.468;5.464;2022-07-30T14:36:31;4.70;;;1.60;;
42336;SDS011;27987;51.468;5.464;2022-07-30T14:39:02;10.05;;;2.35;;
42336;SDS011;27987;51.468;5.464;2022-07-30T14:41:30;6.95;;;1.73;;
42336;SDS011;27987;51.468;5.464;2022-07-30T14:43:57;8.30;;;1.85;;
42336;SDS011;27987;51.468;5.464;2022-07-30T14:46:24;9.00;;;2.15;;
42336;SDS011;27987;51.468;5.464;2022-07-30T14:48:52;4.78;;;1.50;;
42336;SDS011;27987;51.468;5.464;2022-07-30T14:51:19;7.90;;;1.90;;
42336;SDS011;27987;51.468;5.464;2022-07-30T14:53:46;4.68;;;1.70;;
42336;SDS011;27987;51.468;5.464;2022-07-30T14:56:16;4.60;;;1.98;;
42336;SDS011;27987;51.468;5.464;2022-07-30T14:58:43;4.85;;;1.88;;
42336;SDS011;27987;51.468;5.464;2022-07-30T15:01:10;3.63;;;1.70;;
42336;SDS011;27987;51.468;5.464;2022-07-30T15:03:37;7.93;;;2.15;;
42336;SDS011;27987;51.468;5.464;2022-07-30T15:06:05;10.43;;;1.65;;
42336;SDS011;27987;51.468;5.464;2022-07-30T15:08:36;4.95;;;1.35;;